Погода Арарипина неделю

Сеара, Бразилия

25 - 31 июля
  • 25июля
    Сегодня
    +18°
    +28°
    Ясно и безоблачно
    ВремяПогодаТемператураВлажностьДавлениеВетер, м/сВероятность осадков
    00:00Ясно и безоблачно+19°C82 %710 мм5.2 м/с5 %
    03:00Ясно и безоблачно+18°C85 %710 мм5.0 м/с5 %
    06:00Практически безоблачно+17°C89 %710 мм4.6 м/с7 %
    09:00Небольшая облачность+21°C60 %711 мм7.1 м/с15 %
    12:00Небольшая облачность+26°C41 %711 мм6.8 м/с12 %
    15:00Ясно и безоблачно+27°C37 %709 мм6.0 м/с5 %
    18:00Ясно и безоблачно+24°C47 %708 мм3.8 м/с5 %
    21:00Ясно и безоблачно+22°C59 %710 мм5.4 м/с5 %
  • 26июля
    Пятница
    +18°
    +28°
    Облачно с прояснениями
    ВремяПогодаТемператураВлажностьДавлениеВетер, м/сВероятность осадков
    00:00Ясно и безоблачно+20°C79 %709 мм6.2 м/с5 %
    03:00Практически безоблачно+19°C88 %708 мм6.2 м/с5 %
    06:00Небольшая облачность+18°C84 %708 мм5.8 м/с2 %
    09:00Практически безоблачно+22°C52 %710 мм6.4 м/с3 %
    12:00Небольшая облачность+26°C39 %709 мм6.0 м/с5 %
    15:00Облачно с прояснениями+28°C36 %707 мм5.5 м/с5 %
    18:00Небольшая облачность+25°C44 %708 мм3.6 м/с5 %
    21:00Небольшая облачность+22°C58 %709 мм6.1 м/с5 %
  • 27июля
    Суббота
    +18°
    +29°
    Небольшая облачность
    ВремяПогодаТемператураВлажностьДавлениеВетер, м/сВероятность осадков
    00:00Ясно и безоблачно+21°C70 %709 мм6.7 м/с5 %
    03:00Практически безоблачно+19°C80 %708 мм6.4 м/с5 %
    06:00Небольшая облачность+18°C82 %708 мм6.5 м/с5 %
    09:00Практически безоблачно+22°C57 %710 мм7.0 м/с2 %
    12:00Облачно с прояснениями+27°C35 %710 мм5.8 м/с5 %
    15:00Небольшая облачность+28°C33 %708 мм5.2 м/с5 %
    18:00Облачно с прояснениями+26°C40 %709 мм3.8 м/с5 %
    21:00Ясно и безоблачно+22°C62 %710 мм6.1 м/с5 %
  • 28июля
    Воскресенье
    +18°
    +29°
    Облачно с прояснениями
    ВремяПогодаТемператураВлажностьДавлениеВетер, м/сВероятность осадков
    00:00Ясно и безоблачно+21°C76 %710 мм6.7 м/с5 %
    03:00Практически безоблачно+20°C83 %709 мм7.0 м/с5 %
    06:00Практически безоблачно+19°C86 %709 мм6.4 м/с5 %
    09:00Ясно и безоблачно+23°C60 %711 мм5.9 м/с2 %
    12:00Пасмурно, сплошная облачность+28°C42 %710 мм4.5 м/с5 %
    15:00Облачно с прояснениями+28°C41 %709 мм4.6 м/с4 %
    18:00Ясно и безоблачно+25°C50 %709 мм4.5 м/с3 %
    21:00Ясно и безоблачно+23°C57 %710 мм6.3 м/с6 %
  • 29июля
    Понедельник
    +19°
    +29°
    Ясно и безоблачно
    ВремяПогодаТемператураВлажностьДавлениеВетер, м/сВероятность осадков
    00:00Ясно и безоблачно+21°C63 %709 мм6.3 м/с6 %
    03:00Ясно и безоблачно+20°C76 %709 мм6.1 м/с15 %
    06:00Облачно с прояснениями+19°C91 %709 мм6.1 м/с5 %
    09:00Ясно и безоблачно+22°C65 %711 мм5.9 м/с7 %
    12:00Ясно и безоблачно+27°C41 %710 мм4.8 м/с10 %
    15:00Ясно и безоблачно+29°C35 %708 мм4.5 м/с8 %
    18:00Ясно и безоблачно+25°C41 %709 мм3.6 м/с4 %
    21:00Ясно и безоблачно+23°C51 %709 мм5.6 м/с5 %
Мы используем cookies
Соглашаюсь